Portada
METAR-TAF:

METAR-TAF

Aeroports :

Bagdad, Iraq

latitud: 33-15-45N, longitud: 44-14-04E, altitud: 35 m

Observació

L'informe es va fer fa 6 minuts, a les 20:00 UTC
Vent 11 kt del Sud/Sud-Oest
Temperatura 29°C
Humitat 20%
Pressió 1003 hPa
Visibilitat: 4400 m
Pols estès

METAR: ORBI 202000Z 21011KT 4400 DU NSC 29/04 Q1003 NOSIG

Hora: 23:06 (20:06 UTC)

Pronòstic

L'informe es va fer fa 4 hores i 6 minuts, a les 16:00 UTC
Pronòstic vàlid del 20 a les 18 UTC al 21 a les 18 UTC
Vent 12 kt del Sud/Sud-Oest
Visibilitat: 4000 m
Pols estès
Evolucionant progressivament
l' 21 a les 03 UTC al 21 a les 05 UTC
Vent 12 kt del Nord-Oest

TAF: ORBI 201600Z 2018/2118 21012KT 4000 DU BECMG 2103/2105 31012KT

Observacions i pronòstics meteorològics de més de 4000 aeroports (METAR i TAF).

Les estacions disponibles són els punts grocs i vermells al mapa.

Posi el ratolí al punt desitjat per veure el nom de l'estació.

Feu clic per veure les observacions i els pronòstics meteorològics.

Per canviar el mapa: feu clic els botons verds amb una creu de color negre per apropar; al botó verd amb un guió per allunyar la imatge; o en les fletxes verdes per a mapes adjacents.


METAR-TAF: